Time;durP1;ratioP1;P1;durP2;ratioP2;P2;SDS_P1;SDS_P2;PMS_P1;PMS_P2;Temp;Humidity;BMP_temperature;BMP_pressure;BME280_temperature;BME280_humidity;BME280_pressure;Samples;Min_cycle;Max_cycle;Signal;HPM_P1;HPM_P2
2021/07/07 00:00:21;;;;;;;1999.90;999.90;;;22.60;77.20;;;;;;5025368;28;20096;-89
2021/07/07 00:02:47;;;;;;;1999.90;999.90;;;22.50;77.80;;;;;;5029497;28;20022;-89
2021/07/07 00:05:14;;;;;;;1999.90;999.90;;;22.50;77.60;;;;;;5033393;28;20029;-89
2021/07/07 00:07:41;;;;;;;1999.90;999.90;;;22.50;78.10;;;;;;5032791;28;20030;-89
2021/07/07 00:10:09;;;;;;;1999.90;999.90;;;22.40;78.10;;;;;;5028142;28;20087;-87
2021/07/07 00:12:35;;;;;;;1999.90;999.90;;;22.40;78.50;;;;;;5028367;28;20464;-88
2021/07/07 00:15:03;;;;;;;1999.90;999.90;;;22.40;78.80;;;;;;5030816;28;20032;-89
2021/07/07 00:17:29;;;;;;;1999.90;999.90;;;22.40;79.00;;;;;;5032203;28;20032;-89
2021/07/07 00:19:57;;;;;;;1999.90;999.90;;;22.30;79.30;;;;;;5027250;28;20021;-87
2021/07/07 00:22:23;;;;;;;1999.90;999.90;;;22.30;79.40;;;;;;5031003;28;20021;-87
2021/07/07 00:24:49;;;;;;;1999.90;999.90;;;22.20;79.60;;;;;;5032092;28;20362;-86
2021/07/07 00:27:14;;;;;;;1999.90;999.90;;;22.20;79.80;;;;;;5028069;28;20029;-87
2021/07/07 00:29:42;;;;;;;1999.90;999.90;;;22.20;79.90;;;;;;5032968;28;20363;-87
2021/07/07 00:32:07;;;;;;;1999.90;999.90;;;22.20;79.90;;;;;;5037602;28;20029;-87
2021/07/07 00:34:33;;;;;;;1999.90;999.90;;;22.10;79.90;;;;;;5021452;28;20037;-86
2021/07/07 00:36:59;;;;;;;1999.90;999.90;;;22.10;80.00;;;;;;5020079;28;20028;-85
2021/07/07 00:39:25;;;;;;;1999.90;999.90;;;22.00;80.00;;;;;;5035107;28;20021;-87
2021/07/07 00:41:50;;;;;;;1999.90;999.90;;;22.00;80.10;;;;;;5039132;28;20116;-87
2021/07/07 00:44:16;;;;;;;1999.90;999.90;;;22.00;80.10;;;;;;5026982;28;20429;-86
2021/07/07 00:46:45;;;;;;;1999.90;999.90;;;21.90;80.20;;;;;;5028794;28;20538;-86
2021/07/07 00:49:13;;;;;;;1999.90;999.90;;;21.90;80.00;;;;;;5029337;28;20585;-87
2021/07/07 00:51:39;;;;;;;1999.90;999.90;;;21.80;79.90;;;;;;5027138;28;20035;-87
2021/07/07 00:54:05;;;;;;;1999.90;999.90;;;21.90;79.80;;;;;;5029293;28;20033;-87
2021/07/07 00:56:35;;;;;;;1999.90;999.90;;;21.80;79.70;;;;;;5035770;28;20033;-87
2021/07/07 00:59:02;;;;;;;1999.90;999.90;;;21.80;79.50;;;;;;5027522;28;20029;-87
2021/07/07 01:01:29;;;;;;;1999.90;999.90;;;21.70;79.30;;;;;;5026455;28;20029;-87
2021/07/07 01:03:55;;;;;;;1999.90;999.90;;;21.70;79.20;;;;;;5029783;28;20029;-86
2021/07/07 01:06:24;;;;;;;1999.90;999.90;;;21.70;78.90;;;;;;5036979;28;20036;-86
2021/07/07 01:08:49;;;;;;;1999.90;999.90;;;21.70;78.50;;;;;;5029698;28;20095;-86
2021/07/07 01:11:15;;;;;;;1999.90;999.90;;;21.70;78.30;;;;;;5027612;28;20034;-87
2021/07/07 01:13:41;;;;;;;1999.90;999.90;;;21.70;78.30;;;;;;5028999;28;20450;-86
2021/07/07 01:16:10;;;;;;;1999.90;999.90;;;21.70;78.50;;;;;;5027959;28;20376;-87
2021/07/07 01:18:36;;;;;;;1999.90;999.90;;;21.70;78.40;;;;;;5027909;28;20030;-87
2021/07/07 01:21:03;;;;;;;1999.90;999.90;;;21.80;78.50;;;;;;5051430;28;20113;-87
2021/07/07 01:23:29;;;;;;;1999.90;999.90;;;21.80;78.50;;;;;;5030905;28;20052;-87
2021/07/07 01:25:55;;;;;;;1999.90;999.90;;;21.80;78.40;;;;;;5028137;28;20166;-85
2021/07/07 01:28:21;;;;;;;1999.90;999.90;;;21.80;78.00;;;;;;5018014;28;20089;-87
2021/07/07 01:30:47;;;;;;;1999.90;999.90;;;21.80;77.30;;;;;;5034985;28;20018;-86
2021/07/07 01:33:13;;;;;;;1999.90;999.90;;;21.80;77.10;;;;;;5030994;28;20036;-84
2021/07/07 01:35:39;;;;;;;1999.90;999.90;;;21.90;76.80;;;;;;5029151;28;20025;-87
2021/07/07 01:38:05;;;;;;;1999.90;999.90;;;21.90;76.60;;;;;;5022948;28;20037;-88
2021/07/07 01:40:31;;;;;;;1999.90;999.90;;;21.90;76.40;;;;;;5031546;28;20030;-88
2021/07/07 01:42:57;;;;;;;1999.90;999.90;;;22.00;76.10;;;;;;5030231;28;20095;-87
2021/07/07 01:45:24;;;;;;;1999.90;999.90;;;21.90;75.90;;;;;;5026702;28;20439;-87
2021/07/07 01:47:52;;;;;;;1999.90;999.90;;;21.90;75.70;;;;;;5030196;28;20025;-87
2021/07/07 01:50:18;;;;;;;1999.90;999.90;;;21.90;75.80;;;;;;5033217;28;20104;-86
2021/07/07 01:52:44;;;;;;;1999.90;999.90;;;21.90;75.90;;;;;;5025721;28;20096;-86
2021/07/07 01:55:12;;;;;;;1999.90;999.90;;;22.00;76.00;;;;;;5032466;28;20431;-83
2021/07/07 01:57:49;;;;;;;1999.90;999.90;;;22.00;76.00;;;;;;5024745;28;20120;-83
2021/07/07 02:00:19;;;;;;;1999.90;999.90;;;22.00;76.10;;;;;;5025583;28;20516;-83
2021/07/07 02:02:48;;;;;;;1999.90;999.90;;;22.00;76.30;;;;;;5033570;28;20079;-83
2021/07/07 02:05:14;;;;;;;1999.90;999.90;;;21.90;76.60;;;;;;5032513;28;20030;-84
2021/07/07 02:07:40;;;;;;;1999.90;999.90;;;21.90;76.80;;;;;;5030065;28;20029;-84
2021/07/07 02:10:10;;;;;;;1999.90;999.90;;;21.90;77.10;;;;;;5022024;28;20030;-84
2021/07/07 02:12:36;;;;;;;1999.90;999.90;;;21.90;77.20;;;;;;5030133;28;20032;-84
2021/07/07 02:15:14;;;;;;;1999.90;999.90;;;21.90;77.30;;;;;;5028101;28;20497;-84
2021/07/07 02:17:44;;;;;;;1999.90;999.90;;;21.90;77.20;;;;;;5030632;28;20113;-84
2021/07/07 02:20:11;;;;;;;1999.90;999.90;;;21.90;77.20;;;;;;5027521;28;20018;-84
2021/07/07 02:22:38;;;;;;;1999.90;999.90;;;21.80;77.30;;;;;;5028460;28;20021;-84
2021/07/07 02:25:10;;;;;;;1999.90;999.90;;;21.80;77.00;;;;;;5029316;28;21427;-85
2021/07/07 02:27:36;;;;;;;1999.90;999.90;;;21.80;76.90;;;;;;5031647;28;20116;-84
2021/07/07 02:30:08;;;;;;;1999.90;999.90;;;21.80;76.90;;;;;;5031628;28;20125;-84
2021/07/07 02:32:34;;;;;;;1999.90;999.90;;;21.80;76.90;;;;;;5029108;28;20105;-84
2021/07/07 02:35:00;;;;;;;1999.90;999.90;;;21.80;76.80;;;;;;5029132;28;20036;-84
2021/07/07 02:37:26;;;;;;;1999.90;999.90;;;21.80;76.40;;;;;;5027495;28;20080;-85
2021/07/07 02:39:52;;;;;;;1999.90;999.90;;;21.80;76.20;;;;;;5030434;28;20030;-85
2021/07/07 02:42:18;;;;;;;1999.90;999.90;;;21.80;76.10;;;;;;5028958;28;20037;-84
2021/07/07 02:44:44;;;;;;;1999.90;999.90;;;21.70;76.00;;;;;;5030877;28;20549;-84
2021/07/07 02:47:10;;;;;;;1999.90;999.90;;;21.80;75.80;;;;;;5028875;28;20053;-84
2021/07/07 02:49:36;;;;;;;1999.90;999.90;;;21.70;75.60;;;;;;5026648;28;20068;-84
2021/07/07 02:52:02;;;;;;;1999.90;999.90;;;21.80;75.80;;;;;;5030572;28;20428;-84
2021/07/07 02:54:28;;;;;;;1999.90;999.90;;;21.80;75.50;;;;;;5030481;28;20112;-84
2021/07/07 02:56:54;;;;;;;1999.90;999.90;;;21.80;75.30;;;;;;5028169;28;20111;-84
2021/07/07 02:59:19;;;;;;;1999.90;999.90;;;21.70;75.30;;;;;;5027697;28;20475;-84
2021/07/07 03:01:45;;;;;;;1999.90;999.90;;;21.70;75.50;;;;;;5026605;28;20034;-85
2021/07/07 03:04:11;;;;;;;1999.90;999.90;;;21.70;75.50;;;;;;5033634;28;20030;-85
2021/07/07 03:06:36;;;;;;;1999.90;999.90;;;21.70;75.50;;;;;;5028223;28;20032;-84
2021/07/07 03:09:02;;;;;;;1999.90;999.90;;;21.70;76.10;;;;;;5030580;28;20079;-84
2021/07/07 03:11:29;;;;;;;1999.90;999.90;;;21.70;75.50;;;;;;5022362;28;20026;-84
2021/07/07 03:13:55;;;;;;;1999.90;999.90;;;21.70;75.60;;;;;;5025061;28;20037;-84
2021/07/07 03:16:20;;;;;;;1999.90;999.90;;;21.80;75.60;;;;;;5029991;28;20032;-84
2021/07/07 03:18:46;;;;;;;1999.90;999.90;;;21.70;75.40;;;;;;5026765;28;20025;-84
2021/07/07 03:21:12;;;;;;;1999.90;999.90;;;21.80;75.60;;;;;;5030680;28;20045;-84
2021/07/07 03:23:38;;;;;;;1999.90;999.90;;;21.70;75.40;;;;;;5029049;28;20026;-84
2021/07/07 03:26:03;;;;;;;1999.90;999.90;;;21.80;75.20;;;;;;5029691;28;20033;-84
2021/07/07 03:28:29;;;;;;;1999.90;999.90;;;21.80;75.10;;;;;;5026971;28;20026;-84
2021/07/07 03:30:55;;;;;;;1999.90;999.90;;;21.90;75.10;;;;;;5024117;28;20044;-84
2021/07/07 03:33:21;;;;;;;1999.90;999.90;;;21.80;75.00;;;;;;5029858;28;20033;-84
2021/07/07 03:35:47;;;;;;;1999.90;999.90;;;21.80;75.10;;;;;;5025483;28;20059;-84
2021/07/07 03:38:13;;;;;;;1999.90;999.90;;;21.90;74.90;;;;;;5031125;28;20028;-83
2021/07/07 03:40:40;;;;;;;1999.90;999.90;;;22.00;74.60;;;;;;5019764;28;20037;-84
2021/07/07 03:43:07;;;;;;;1999.90;999.90;;;22.10;74.50;;;;;;5031494;28;20025;-84
2021/07/07 03:45:33;;;;;;;1999.90;999.90;;;22.20;74.10;;;;;;5021142;28;20033;-84
2021/07/07 03:47:58;;;;;;;1999.90;999.90;;;22.30;73.80;;;;;;5023265;28;20022;-83
2021/07/07 03:50:25;;;;;;;1999.90;999.90;;;22.40;73.30;;;;;;5027804;28;20041;-83
2021/07/07 03:52:51;;;;;;;1999.90;999.90;;;22.50;73.00;;;;;;5027699;28;20045;-84
2021/07/07 03:55:20;;;;;;;1999.90;999.90;;;22.50;72.60;;;;;;5032651;28;20076;-84
2021/07/07 03:57:47;;;;;;;1999.90;999.90;;;22.60;72.60;;;;;;5027711;28;20792;-84
2021/07/07 04:00:16;;;;;;;1999.90;999.90;;;22.70;72.20;;;;;;5028519;28;20033;-84
2021/07/07 04:02:44;;;;;;;1999.90;999.90;;;22.80;71.80;;;;;;5027084;28;20060;-85
2021/07/07 04:05:11;;;;;;;1999.90;999.90;;;22.80;71.80;;;;;;5032448;28;20132;-84
2021/07/07 04:07:39;;;;;;;1999.90;999.90;;;22.80;71.50;;;;;;5027495;28;20060;-85
2021/07/07 04:10:07;;;;;;;1999.90;999.90;;;22.90;71.50;;;;;;5028786;28;20073;-84
2021/07/07 04:12:34;;;;;;;1999.90;999.90;;;22.90;71.20;;;;;;5030416;28;20025;-84
2021/07/07 04:15:00;;;;;;;1999.90;999.90;;;23.00;71.10;;;;;;5025809;28;20032;-84
2021/07/07 04:17:26;;;;;;;1999.90;999.90;;;23.00;71.10;;;;;;5028323;28;20148;-83
2021/07/07 04:19:54;;;;;;;1999.90;999.90;;;23.00;70.90;;;;;;5020248;28;20394;-84
2021/07/07 04:22:20;;;;;;;1999.90;999.90;;;23.00;70.80;;;;;;5023984;28;20068;-84
2021/07/07 04:24:46;;;;;;;1999.90;999.90;;;22.90;70.50;;;;;;5026670;28;20053;-84
2021/07/07 04:27:11;;;;;;;1999.90;999.90;;;22.90;70.80;;;;;;5020123;28;20092;-85
2021/07/07 04:29:37;;;;;;;1999.90;999.90;;;23.00;70.80;;;;;;5027827;28;20801;-84
2021/07/07 04:32:03;;;;;;;1999.90;999.90;;;23.10;70.60;;;;;;5020907;28;20029;-84
2021/07/07 04:34:29;;;;;;;1999.90;999.90;;;23.10;70.30;;;;;;5026812;28;20124;-84
2021/07/07 04:36:54;;;;;;;1999.90;999.90;;;23.00;70.00;;;;;;5028672;28;20108;-84
2021/07/07 04:39:20;;;;;;;1999.90;999.90;;;23.00;70.50;;;;;;5028335;28;20514;-86
2021/07/07 04:41:46;;;;;;;1999.90;999.90;;;23.00;69.90;;;;;;5027752;28;20494;-85
2021/07/07 04:44:12;;;;;;;1999.90;999.90;;;22.90;70.50;;;;;;5030753;28;20483;-85
2021/07/07 04:46:37;;;;;;;1999.90;999.90;;;22.90;70.20;;;;;;5020409;28;20505;-85
2021/07/07 04:49:06;;;;;;;1999.90;999.90;;;22.90;70.50;;;;;;5023492;28;20037;-84
2021/07/07 04:51:32;;;;;;;1999.90;999.90;;;22.90;70.40;;;;;;5024273;28;20087;-85
2021/07/07 04:53:58;;;;;;;1999.90;999.90;;;22.90;70.30;;;;;;5029890;28;20057;-84
2021/07/07 04:56:26;;;;;;;1999.90;999.90;;;22.90;70.30;;;;;;5034045;28;20032;-84
2021/07/07 04:58:52;;;;;;;1999.90;999.90;;;22.90;70.30;;;;;;5028962;28;20124;-85
2021/07/07 05:01:18;;;;;;;1999.90;999.90;;;22.90;70.20;;;;;;5034050;28;20104;-85
2021/07/07 05:03:43;;;;;;;1999.90;999.90;;;22.90;70.20;;;;;;5034170;28;20467;-84
2021/07/07 05:06:09;;;;;;;1999.90;999.90;;;22.90;70.20;;;;;;5026198;28;20057;-84
2021/07/07 05:08:35;;;;;;;1999.90;999.90;;;22.90;70.10;;;;;;5023024;28;20463;-84
2021/07/07 05:11:01;;;;;;;1999.90;999.90;;;22.90;70.30;;;;;;5023718;28;20033;-85
2021/07/07 05:13:27;;;;;;;1999.90;999.90;;;22.90;70.50;;;;;;5021671;28;20025;-85
2021/07/07 05:15:54;;;;;;;1999.90;999.90;;;23.00;70.60;;;;;;5022818;28;20067;-84
2021/07/07 05:18:20;;;;;;;1999.90;999.90;;;23.10;70.30;;;;;;5025145;28;20121;-84
2021/07/07 05:20:46;;;;;;;1999.90;999.90;;;23.20;70.20;;;;;;5028221;28;21378;-84
2021/07/07 05:23:12;;;;;;;1999.90;999.90;;;23.30;70.00;;;;;;5027552;28;20057;-84
2021/07/07 05:25:40;;;;;;;1999.90;999.90;;;23.40;70.00;;;;;;5028059;28;20056;-84
2021/07/07 05:28:06;;;;;;;1999.90;999.90;;;23.50;70.50;;;;;;5026465;28;20100;-84
2021/07/07 05:30:33;;;;;;;1999.90;999.90;;;23.60;69.70;;;;;;5018917;28;20079;-86
2021/07/07 05:33:00;;;;;;;1999.90;999.90;;;23.70;69.50;;;;;;5021504;28;20033;-83
2021/07/07 05:35:26;;;;;;;1999.90;999.90;;;23.90;69.30;;;;;;5020157;28;20040;-83
2021/07/07 05:37:52;;;;;;;1999.90;999.90;;;24.00;69.00;;;;;;5022588;28;20025;-83
2021/07/07 05:40:19;;;;;;;1999.90;999.90;;;24.10;68.70;;;;;;5022022;28;20057;-83
2021/07/07 05:42:50;;;;;;;1999.90;999.90;;;24.30;68.50;;;;;;5024925;28;20029;-83
2021/07/07 05:45:17;;;;;;;1999.90;999.90;;;24.50;68.10;;;;;;5021229;28;20485;-84
2021/07/07 05:47:43;;;;;;;1999.90;999.90;;;24.60;67.20;;;;;;5016849;28;20018;-83
2021/07/07 05:50:09;;;;;;;1999.90;999.90;;;24.60;66.80;;;;;;5014847;28;20079;-83
2021/07/07 05:52:35;;;;;;;1999.90;999.90;;;24.70;66.80;;;;;;5019397;28;20064;-84
2021/07/07 05:55:00;;;;;;;1999.90;999.90;;;24.70;66.30;;;;;;5020459;28;20684;-84
2021/07/07 05:57:38;;;;;;;1999.90;999.90;;;24.80;66.50;;;;;;5006324;28;20029;-84
2021/07/07 06:00:10;;;;;;;1999.90;999.90;;;24.90;66.00;;;;;;5000368;28;20056;-85
2021/07/07 06:02:37;;;;;;;1999.90;999.90;;;24.90;65.70;;;;;;5006354;28;20031;-84
2021/07/07 06:05:04;;;;;;;1999.90;999.90;;;24.90;65.70;;;;;;5003234;28;20038;-84
2021/07/07 06:07:30;;;;;;;1999.90;999.90;;;24.90;65.60;;;;;;5006248;28;20126;-84
2021/07/07 06:09:56;;;;;;;1999.90;999.90;;;24.90;65.80;;;;;;5014512;28;20092;-82
2021/07/07 06:12:21;;;;;;;1999.90;999.90;;;24.90;65.30;;;;;;5028556;28;20067;-85
2021/07/07 06:14:47;;;;;;;1999.90;999.90;;;25.00;65.60;;;;;;5012490;28;20029;-82
2021/07/07 06:17:13;;;;;;;1999.90;999.90;;;25.10;65.70;;;;;;5016228;28;20581;-84
2021/07/07 06:19:38;;;;;;;1999.90;999.90;;;25.20;65.90;;;;;;5022447;28;20045;-83
2021/07/07 06:22:04;;;;;;;1999.90;999.90;;;25.50;65.40;;;;;;5014960;28;20037;-84
2021/07/07 06:24:30;;;;;;;1999.90;999.90;;;25.70;65.00;;;;;;5014102;28;20033;-84
2021/07/07 06:26:56;;;;;;;1999.90;999.90;;;25.90;64.10;;;;;;5027067;28;20120;-83
2021/07/07 06:29:30;;;;;;;1999.90;999.90;;;26.10;63.60;;;;;;5009407;28;20039;-84
2021/07/07 06:31:56;;;;;;;1999.90;999.90;;;26.30;62.90;;;;;;5035946;28;20025;-83
2021/07/07 06:34:22;;;;;;;1999.90;999.90;;;26.40;62.30;;;;;;5032437;28;20041;-84
2021/07/07 06:36:48;;;;;;;1999.90;999.90;;;26.50;61.80;;;;;;5013230;28;20030;-84
2021/07/07 06:39:14;;;;;;;1999.90;999.90;;;26.50;61.70;;;;;;5015718;28;20029;-84
2021/07/07 06:41:40;;;;;;;1999.90;999.90;;;26.50;62.10;;;;;;5009776;28;20021;-83
2021/07/07 06:44:08;;;;;;;1999.90;999.90;;;26.50;61.30;;;;;;5016143;28;20450;-84
2021/07/07 06:46:35;;;;;;;1999.90;999.90;;;26.50;61.00;;;;;;5021138;28;20036;-83
2021/07/07 06:49:02;;;;;;;1999.90;999.90;;;26.40;60.90;;;;;;5020197;28;20041;-84
2021/07/07 06:51:28;;;;;;;1999.90;999.90;;;26.40;60.80;;;;;;5032646;28;20087;-83
2021/07/07 06:53:54;;;;;;;1999.90;999.90;;;26.20;60.80;;;;;;5011754;28;20053;-82
2021/07/07 06:56:20;;;;;;;1999.90;999.90;;;26.20;61.30;;;;;;5037641;28;20056;-83
2021/07/07 06:58:45;;;;;;;1999.90;999.90;;;26.10;60.90;;;;;;5011741;28;20097;-83
2021/07/07 07:01:11;;;;;;;1999.90;999.90;;;25.90;61.30;;;;;;5007147;28;20053;-83
2021/07/07 07:03:37;;;;;;;1999.90;999.90;;;25.90;61.80;;;;;;5005166;28;20037;-83
2021/07/07 07:06:03;;;;;;;1999.90;999.90;;;25.90;62.10;;;;;;5013339;28;20040;-84
2021/07/07 07:08:32;;;;;;;1999.90;999.90;;;25.90;62.10;;;;;;5012330;28;20084;-85
2021/07/07 07:11:05;;;;;;;1999.90;999.90;;;26.10;62.10;;;;;;5000807;28;20288;-84
2021/07/07 07:13:31;;;;;;;1999.90;999.90;;;26.30;62.20;;;;;;5012504;28;20037;-84
2021/07/07 07:15:59;;;;;;;1999.90;999.90;;;26.40;61.70;;;;;;5011484;28;20034;-87
2021/07/07 07:18:25;;;;;;;1999.90;999.90;;;26.50;61.40;;;;;;5008132;28;20053;-84
2021/07/07 07:20:51;;;;;;;1999.90;999.90;;;26.60;61.30;;;;;;5012345;28;20534;-84
2021/07/07 07:23:18;;;;;;;1999.90;999.90;;;26.70;60.70;;;;;;5010033;28;20026;-84
2021/07/07 07:25:47;;;;;;;1999.90;999.90;;;26.80;60.70;;;;;;5006416;28;20033;-84
2021/07/07 07:28:13;;;;;;;1999.90;999.90;;;26.90;59.60;;;;;;5004428;28;20037;-83
2021/07/07 07:30:39;;;;;;;1999.90;999.90;;;26.90;59.50;;;;;;5006508;28;20072;-83
2021/07/07 07:33:06;;;;;;;1999.90;999.90;;;26.90;59.60;;;;;;5006999;28;20044;-82
2021/07/07 07:35:31;;;;;;;1999.90;999.90;;;27.00;59.90;;;;;;5005000;28;20033;-83
2021/07/07 07:38:04;;;;;;;1999.90;999.90;;;27.10;59.70;;;;;;5010692;28;20067;-83
2021/07/07 07:40:36;;;;;;;1999.90;999.90;;;27.30;59.10;;;;;;5018502;28;20033;-82
2021/07/07 07:43:04;;;;;;;1999.90;999.90;;;27.30;58.90;;;;;;5003093;28;20030;-82
2021/07/07 07:45:31;;;;;;;1999.90;999.90;;;27.40;58.70;;;;;;5011097;28;20034;-83
2021/07/07 07:47:57;;;;;;;1999.90;999.90;;;27.50;58.30;;;;;;5008917;28;20041;-83
2021/07/07 07:50:23;;;;;;;1999.90;999.90;;;27.50;57.90;;;;;;5013858;28;20090;-84
2021/07/07 07:52:49;;;;;;;1999.90;999.90;;;27.50;58.10;;;;;;5016375;28;20219;-83
2021/07/07 07:55:15;;;;;;;1999.90;999.90;;;27.60;57.80;;;;;;5016401;28;20052;-84
2021/07/07 07:57:41;;;;;;;1999.90;999.90;;;27.70;57.70;;;;;;5012507;28;20479;-84
2021/07/07 08:00:15;;;;;;;1999.90;999.90;;;27.70;57.30;;;;;;5034031;28;20025;-85
2021/07/07 08:02:44;;;;;;;1999.90;999.90;;;27.60;57.10;;;;;;5016519;28;20026;-84
2021/07/07 08:05:15;;;;;;;1999.90;999.90;;;27.60;57.20;;;;;;5015510;28;20045;-83
2021/07/07 08:08:01;;;;;;;1999.90;999.90;;;27.60;57.10;;;;;;5011719;28;20033;-82
2021/07/07 08:10:35;;;;;;;1999.90;999.90;;;27.60;56.80;;;;;;5016928;28;20038;-83
2021/07/07 08:13:05;;;;;;;1999.90;999.90;;;27.60;56.70;;;;;;5007808;28;20116;-84
2021/07/07 08:15:35;;;;;;;1999.90;999.90;;;27.60;56.00;;;;;;5003498;28;20041;-84
2021/07/07 08:18:01;;;;;;;1999.90;999.90;;;27.60;55.80;;;;;;5005940;28;20021;-84
2021/07/07 08:20:38;;;;;;;1999.90;999.90;;;27.60;55.90;;;;;;5005052;28;20412;-83
2021/07/07 08:23:05;;;;;;;1999.90;999.90;;;27.60;56.00;;;;;;5010185;28;20036;-84
2021/07/07 08:25:38;;;;;;;1999.90;999.90;;;27.70;56.20;;;;;;5010429;28;20407;-83
2021/07/07 08:28:12;;;;;;;1999.90;999.90;;;27.80;56.20;;;;;;5013601;28;20110;-85
2021/07/07 08:30:44;;;;;;;1999.90;999.90;;;27.90;55.30;;;;;;5022268;28;20030;-84
2021/07/07 08:33:11;;;;;;;1999.90;999.90;;;27.90;55.30;;;;;;5010011;28;20029;-84
2021/07/07 08:35:40;;;;;;;1999.90;999.90;;;27.90;55.40;;;;;;5003446;28;20121;-84
2021/07/07 08:38:06;;;;;;;1999.90;999.90;;;28.00;55.30;;;;;;5008947;28;20026;-85
2021/07/07 08:40:35;;;;;;;1999.90;999.90;;;28.00;55.10;;;;;;5013230;28;20039;-84
2021/07/07 08:43:02;;;;;;;1999.90;999.90;;;28.00;55.00;;;;;;5016291;28;20025;-84
2021/07/07 08:45:32;;;;;;;1999.90;999.90;;;28.00;55.30;;;;;;5014478;28;20048;-84
2021/07/07 08:47:58;;;;;;;1999.90;999.90;;;28.00;55.80;;;;;;5010448;28;20029;-84
2021/07/07 08:50:27;;;;;;;1999.90;999.90;;;28.10;55.40;;;;;;5011564;28;20122;-84
2021/07/07 08:52:54;;;;;;;1999.90;999.90;;;28.20;54.40;;;;;;5016115;28;20854;-85
2021/07/07 08:55:21;;;;;;;1999.90;999.90;;;28.30;55.00;;;;;;5014041;28;20090;-84
2021/07/07 08:57:48;;;;;;;1999.90;999.90;;;28.40;54.30;;;;;;5012959;28;20037;-84
2021/07/07 09:00:36;;;;;;;1999.90;999.90;;;28.40;53.80;;;;;;5029178;28;20036;-84
2021/07/07 09:03:04;;;;;;;1999.90;999.90;;;28.40;53.30;;;;;;5026359;28;20033;-84
2021/07/07 09:05:46;;;;;;;1999.90;999.90;;;28.40;53.50;;;;;;5010474;28;20866;-83
2021/07/07 09:08:11;;;;;;;1999.90;999.90;;;28.50;53.50;;;;;;5004338;28;20122;-83
2021/07/07 09:10:43;;;;;;;1999.90;999.90;;;28.50;53.30;;;;;;5010687;28;20589;-84
2021/07/07 09:13:15;;;;;;;1999.90;999.90;;;28.50;53.10;;;;;;5010024;28;20040;-84
2021/07/07 09:15:41;;;;;;;1999.90;999.90;;;28.40;53.10;;;;;;5015412;28;20751;-83
2021/07/07 09:18:07;;;;;;;1999.90;999.90;;;28.40;53.60;;;;;;5011067;28;20027;-84
2021/07/07 09:20:40;;;;;;;1999.90;999.90;;;28.50;53.50;;;;;;5005033;28;20029;-83
2021/07/07 09:23:22;;;;;;;1999.90;999.90;;;28.60;53.50;;;;;;5009708;28;20069;-83
2021/07/07 09:26:05;;;;;;;1999.90;999.90;;;28.70;52.60;;;;;;5010011;28;20532;-83
2021/07/07 09:28:38;;;;;;;1999.90;999.90;;;28.80;53.70;;;;;;5010317;28;20042;-82
2021/07/07 09:31:32;;;;;;;1999.90;999.90;;;28.90;53.20;;;;;;5005362;28;22706;-82
2021/07/07 09:34:24;;;;;;;1999.90;999.90;;;29.00;52.60;;;;;;5020727;28;20040;-82
2021/07/07 09:36:56;;;;;;;1999.90;999.90;;;29.10;52.50;;;;;;5022504;28;20030;-83
2021/07/07 09:39:25;;;;;;;1999.90;999.90;;;29.20;53.40;;;;;;5007222;28;20701;-83
2021/07/07 09:41:51;;;;;;;1999.90;999.90;;;29.40;53.50;;;;;;5017007;28;20563;-83
2021/07/07 09:44:18;;;;;;;1999.90;999.90;;;29.60;53.10;;;;;;5009346;28;20026;-84
2021/07/07 09:46:53;;;;;;;1999.90;999.90;;;29.70;52.90;;;;;;5024406;28;20048;-82
2021/07/07 09:49:30;;;;;;;;;;;;;;;;;;;;;
2021/07/07 09:52:00;;;;;;;1999.90;999.90;;;29.80;52.60;;;;;;5014452;28;20046;-83
2021/07/07 09:54:26;;;;;;;1999.90;999.90;;;29.80;52.70;;;;;;5009148;28;20030;-83
2021/07/07 09:56:54;;;;;;;1999.90;999.90;;;29.70;52.00;;;;;;5006214;28;20061;-83
2021/07/07 09:59:28;;;;;;;1999.90;999.90;;;29.70;52.50;;;;;;5010457;28;20029;-84
2021/07/07 10:01:55;;;;;;;1999.90;999.90;;;29.60;52.90;;;;;;5009837;28;20030;-84
2021/07/07 10:04:32;;;;;;;1999.90;999.90;;;29.60;53.20;;;;;;5004138;28;20032;-83
2021/07/07 10:06:59;;;;;;;1999.90;999.90;;;29.60;52.80;;;;;;4999942;28;20591;-83
2021/07/07 10:09:26;;;;;;;1999.90;999.90;;;29.50;53.10;;;;;;5007437;28;20103;-83
2021/07/07 10:12:00;;;;;;;1999.90;999.90;;;29.40;53.20;;;;;;5011631;28;20036;-82
2021/07/07 10:14:28;;;;;;;1999.90;999.90;;;29.40;53.20;;;;;;5011685;28;20033;-84
2021/07/07 10:16:53;;;;;;;1999.90;999.90;;;29.40;53.00;;;;;;5018198;28;20072;-84
2021/07/07 10:19:23;;;;;;;1999.90;999.90;;;29.30;53.20;;;;;;5016919;28;20025;-84
2021/07/07 10:21:57;;;;;;;1999.90;999.90;;;29.20;53.70;;;;;;5011566;28;20511;-84
2021/07/07 10:24:58;;;;;;;1999.90;999.90;;;29.10;54.10;;;;;;5036980;28;20124;-83
2021/07/07 10:27:56;;;;;;;1999.90;999.90;;;29.10;54.20;;;;;;5006861;28;20041;-83
2021/07/07 10:30:44;;;;;;;1999.90;999.90;;;29.30;54.00;;;;;;5010001;28;20038;-84
2021/07/07 10:33:16;;;;;;;1999.90;999.90;;;29.40;53.60;;;;;;5008446;28;20043;-84
2021/07/07 10:35:41;;;;;;;1999.90;999.90;;;29.50;53.50;;;;;;5023502;28;20068;-84
2021/07/07 10:38:08;;;;;;;1999.90;999.90;;;29.70;53.10;;;;;;5011330;28;20129;-82
2021/07/07 10:40:40;;;;;;;1999.90;999.90;;;29.70;51.70;;;;;;5015850;28;20670;-83
2021/07/07 10:43:06;;;;;;;1999.90;999.90;;;29.70;50.50;;;;;;5008887;28;20063;-82
2021/07/07 10:45:35;;;;;;;1999.90;999.90;;;29.60;50.70;;;;;;5016400;28;20487;-85
2021/07/07 10:48:28;;;;;;;1999.90;999.90;;;29.70;51.20;;;;;;5024053;28;20168;-84
2021/07/07 10:50:57;;;;;;;;;;;29.80;51.40;;;;;;5015104;28;20414;-83
2021/07/07 10:53:33;;;;;;;1999.90;999.90;;;29.90;51.40;;;;;;5015268;28;19967;-84
2021/07/07 10:56:45;;;;;;;1999.90;999.90;;;30.00;50.90;;;;;;5021715;28;20048;-85
2021/07/07 10:59:32;;;;;;;1999.90;999.90;;;30.20;50.10;;;;;;5006416;28;20515;-86
2021/07/07 11:02:11;;;;;;;1999.90;999.90;;;30.20;50.00;;;;;;5022156;28;20037;-83
2021/07/07 11:04:41;;;;;;;1999.90;999.90;;;30.30;50.10;;;;;;5010396;28;20316;-84
2021/07/07 11:07:31;;;;;;;1999.90;999.90;;;30.40;49.90;;;;;;5006112;28;20044;-83
2021/07/07 11:10:24;;;;;;;1999.90;999.90;;;30.50;49.10;;;;;;5004518;28;20113;-83
2021/07/07 11:13:31;;;;;;;1999.90;999.90;;;30.50;49.80;;;;;;5006672;28;20055;-85
2021/07/07 11:15:57;;;;;;;1999.90;999.90;;;30.50;49.90;;;;;;5005165;28;20045;-85
2021/07/07 11:18:32;;;;;;;1999.90;999.90;;;30.60;49.50;;;;;;5022828;28;20033;-83
2021/07/07 11:21:04;;;;;;;1999.90;999.90;;;30.60;49.40;;;;;;5002900;28;20044;-83
2021/07/07 11:23:30;;;;;;;;;;;30.50;49.00;;;;;;4999668;28;20033;-83
2021/07/07 11:25:56;;;;;;;1999.90;999.90;;;30.30;48.50;;;;;;4995743;28;19920;-84
2021/07/07 11:28:24;;;;;;;1999.90;999.90;;;30.30;49.40;;;;;;4999133;28;20048;-84
2021/07/07 11:30:52;;;;;;;1999.90;999.90;;;30.30;49.20;;;;;;5003972;28;20029;-85
2021/07/07 11:33:18;;;;;;;1999.90;999.90;;;30.30;49.50;;;;;;4993433;28;20025;-84
2021/07/07 11:35:46;;;;;;;1999.90;999.90;;;30.30;49.60;;;;;;5008353;28;20044;-81
2021/07/07 11:38:32;;;;;;;1999.90;999.90;;;30.30;49.80;;;;;;5011810;28;20056;-83
2021/07/07 11:40:59;;;;;;;1999.90;999.90;;;30.30;49.70;;;;;;5007655;28;20133;-84
2021/07/07 11:43:28;;;;;;;1999.90;999.90;;;30.30;49.30;;;;;;5006734;28;20029;-83
2021/07/07 11:46:01;;;;;;;1999.90;999.90;;;30.30;49.40;;;;;;5009960;28;20692;-82
2021/07/07 11:48:38;;;;;;;1999.90;999.90;;;30.30;49.70;;;;;;5004992;28;20076;-82
2021/07/07 11:51:18;;;;;;;1999.90;999.90;;;30.40;49.70;;;;;;5018186;28;20029;-83
2021/07/07 11:53:49;;;;;;;1999.90;999.90;;;30.50;49.50;;;;;;5018281;28;21652;-83
2021/07/07 11:56:20;;;;;;;1999.90;999.90;;;30.50;48.90;;;;;;5010926;28;20048;-84
2021/07/07 11:58:50;;;;;;;1999.90;999.90;;;30.40;49.20;;;;;;5020004;28;20056;-83
2021/07/07 12:01:25;;;;;;;1999.90;999.90;;;30.40;49.30;;;;;;5002233;28;20040;-83
2021/07/07 12:03:57;;;;;;;1999.90;999.90;;;30.40;49.20;;;;;;5009194;28;20030;-84
2021/07/07 12:06:36;;;;;;;1999.90;999.90;;;30.50;49.40;;;;;;5018983;28;20033;-84
2021/07/07 12:09:22;;;;;;;1999.90;999.90;;;30.40;50.20;;;;;;5012428;28;20037;-84